Time;durP1;ratioP1;P1;durP2;ratioP2;P2;SDS_P1;SDS_P2;PMS_P1;PMS_P2;Temp;Humidity;BMP_temperature;BMP_pressure;BME280_temperature;BME280_humidity;BME280_pressure;Samples;Min_cycle;Max_cycle;Signal;HPM_P1;HPM_P2
2021/03/19 00:00:48;;;;;;;6.20;5.60;;;2.40;99.90;;;;;;5040952;28;20232;-84
2021/03/19 00:03:14;;;;;;;6.35;5.85;;;2.50;99.90;;;;;;5041038;28;20217;-83
2021/03/19 00:05:40;;;;;;;8.15;7.32;;;2.50;99.90;;;;;;5040559;28;20588;-83
2021/03/19 00:08:06;;;;;;;7.78;6.40;;;2.40;99.90;;;;;;5040084;28;20603;-83
2021/03/19 00:10:34;;;;;;;9.52;6.38;;;2.30;99.90;;;;;;5040509;28;20705;-83
2021/03/19 00:13:03;;;;;;;9.27;6.85;;;2.40;99.90;;;;;;5040328;28;20733;-83
2021/03/19 00:15:30;;;;;;;6.97;5.93;;;2.50;99.90;;;;;;5039934;28;20208;-83
2021/03/19 00:17:59;;;;;;;7.65;6.88;;;2.40;99.90;;;;;;5040216;28;20209;-83
2021/03/19 00:20:26;;;;;;;9.32;6.75;;;2.30;99.90;;;;;;5039785;28;20238;-83
2021/03/19 00:22:52;;;;;;;8.07;7.20;;;2.30;99.90;;;;;;5039810;28;20215;-83
2021/03/19 00:25:19;;;;;;;8.48;7.75;;;2.20;99.90;;;;;;5040627;28;20210;-83
2021/03/19 00:27:45;;;;;;;9.48;6.75;;;2.20;99.90;;;;;;5038993;28;20239;-83
2021/03/19 00:30:14;;;;;;;6.63;5.93;;;2.10;99.90;;;;;;5039539;28;20261;-83
2021/03/19 00:32:42;;;;;;;8.18;6.97;;;2.20;99.90;;;;;;5039792;28;20215;-83
2021/03/19 00:35:10;;;;;;;12.13;8.73;;;2.30;99.90;;;;;;5039750;28;20688;-83
2021/03/19 00:37:37;;;;;;;7.82;7.20;;;2.50;99.90;;;;;;5039422;28;20203;-83
2021/03/19 00:40:05;;;;;;;8.60;6.80;;;2.60;99.90;;;;;;5039325;28;20238;-83
2021/03/19 00:42:31;;;;;;;9.50;7.53;;;2.70;99.90;;;;;;5039636;28;20214;-83
2021/03/19 00:44:57;;;;;;;9.57;7.10;;;2.80;99.90;;;;;;5039659;28;20654;-83
2021/03/19 00:47:23;;;;;;;8.13;7.43;;;2.90;99.90;;;;;;5039753;28;20231;-83
2021/03/19 00:49:50;;;;;;;6.40;5.88;;;3.00;99.90;;;;;;5039357;28;20274;-83
2021/03/19 00:52:17;;;;;;;9.25;7.22;;;3.00;99.90;;;;;;5039586;28;20240;-82
2021/03/19 00:54:43;;;;;;;7.85;7.15;;;3.10;99.90;;;;;;5039989;28;20578;-83
2021/03/19 00:57:09;;;;;;;7.68;6.97;;;3.20;99.90;;;;;;5039492;28;20665;-83
2021/03/19 00:59:35;;;;;;;6.30;5.70;;;3.20;99.90;;;;;;5039187;28;20230;-83
2021/03/19 01:02:02;;;;;;;8.48;7.15;;;3.20;99.90;;;;;;5038703;28;20206;-83
2021/03/19 01:04:28;;;;;;;8.07;7.15;;;3.20;99.90;;;;;;5039556;28;20257;-83
2021/03/19 01:06:54;;;;;;;9.70;7.85;;;3.20;99.90;;;;;;5039473;28;20218;-83
2021/03/19 01:09:21;;;;;;;8.93;7.03;;;3.20;99.90;;;;;;5039677;28;20211;-82
2021/03/19 01:11:49;;;;;;;10.75;7.80;;;3.20;99.90;;;;;;5038989;28;20585;-83
2021/03/19 01:14:15;;;;;;;7.10;6.60;;;3.20;99.90;;;;;;5038886;28;20208;-83
2021/03/19 01:16:42;;;;;;;7.55;6.35;;;3.20;99.90;;;;;;5039653;28;20582;-83
2021/03/19 01:19:09;;;;;;;8.98;8.07;;;3.20;99.90;;;;;;5039266;28;20221;-83
2021/03/19 01:21:35;;;;;;;8.70;7.85;;;3.20;99.90;;;;;;5038436;28;20213;-83
2021/03/19 01:24:01;;;;;;;9.68;8.75;;;3.20;99.90;;;;;;5038706;28;20209;-83
2021/03/19 01:26:28;;;;;;;8.23;7.53;;;3.20;99.90;;;;;;5038783;28;20241;-83
2021/03/19 01:28:55;;;;;;;10.98;9.18;;;3.20;99.90;;;;;;5038561;28;20226;-83
2021/03/19 01:31:21;;;;;;;9.75;8.73;;;3.20;99.90;;;;;;5038765;28;20228;-81
2021/03/19 01:33:47;;;;;;;9.85;7.93;;;3.20;99.90;;;;;;5038250;28;20212;-83
2021/03/19 01:36:14;;;;;;;9.07;8.27;;;3.20;99.90;;;;;;5038250;28;20695;-83
2021/03/19 01:38:40;;;;;;;9.20;8.15;;;3.20;99.90;;;;;;5038509;28;20274;-83
2021/03/19 01:41:08;;;;;;;8.52;7.75;;;3.20;99.90;;;;;;5038364;28;20231;-83
2021/03/19 01:43:36;;;;;;;12.27;8.70;;;3.20;99.90;;;;;;5037830;28;20209;-83
2021/03/19 01:46:24;;;;;;;8.52;7.20;;;3.10;99.90;;;;;;5038551;28;20264;-82
2021/03/19 01:49:28;;;;;;;9.25;8.45;;;3.10;99.90;;;;;;5037546;28;20228;-82
2021/03/19 01:52:31;;;;;;;9.50;8.50;;;3.10;99.90;;;;;;5037756;28;20300;-83
2021/03/19 01:55:35;;;;;;;8.68;7.78;;;3.10;99.90;;;;;;5037763;28;20211;-82
2021/03/19 01:58:39;;;;;;;10.40;8.93;;;3.10;99.90;;;;;;5037790;28;20207;-81
2021/03/19 02:01:42;;;;;;;10.80;8.02;;;3.00;99.90;;;;;;5037373;28;20719;-82
2021/03/19 02:04:46;;;;;;;9.27;8.45;;;3.00;99.90;;;;;;5036891;28;20214;-82
2021/03/19 02:07:51;;;;;;;8.65;7.57;;;2.90;99.90;;;;;;5037016;28;20231;-82
2021/03/19 02:10:55;;;;;;;9.10;7.78;;;2.90;99.90;;;;;;5014091;28;20289;-81
2021/03/19 02:13:58;;;;;;;9.35;8.18;;;2.90;99.90;;;;;;5037091;28;20211;-82
2021/03/19 02:17:02;;;;;;;9.60;8.70;;;2.90;99.90;;;;;;5036693;28;20205;-82
2021/03/19 02:20:02;;;;;;;11.88;10.55;;;2.80;99.90;;;;;;5036975;28;20227;-82
2021/03/19 02:23:06;;;;;;;12.45;11.15;;;2.80;99.90;;;;;;5004122;28;20579;-82
2021/03/19 02:26:10;;;;;;;11.77;10.55;;;2.70;99.90;;;;;;5037037;28;20209;-82
2021/03/19 02:29:13;;;;;;;10.98;9.90;;;2.70;99.90;;;;;;5036663;28;20223;-82
2021/03/19 02:31:58;;;;;;;9.40;8.50;;;2.60;99.90;;;;;;5036475;28;20222;-82
2021/03/19 02:34:28;;;;;;;9.15;8.35;;;2.60;99.90;;;;;;5036113;28;20281;-82
2021/03/19 02:36:55;;;;;;;9.90;8.95;;;2.60;99.90;;;;;;5036280;28;20214;-82
2021/03/19 02:39:21;;;;;;;11.82;9.73;;;2.60;99.90;;;;;;5036561;28;20268;-82
2021/03/19 02:41:47;;;;;;;9.50;8.57;;;2.50;99.90;;;;;;5036613;28;20208;-82
2021/03/19 02:44:14;;;;;;;11.75;9.60;;;2.50;99.90;;;;;;5036819;28;20207;-82
2021/03/19 02:46:40;;;;;;;11.05;9.95;;;2.50;99.90;;;;;;5036418;28;20207;-81
2021/03/19 02:49:07;;;;;;;11.65;10.55;;;2.60;99.90;;;;;;5036957;28;20231;-80
2021/03/19 02:51:33;;;;;;;11.80;10.60;;;2.60;99.90;;;;;;5035594;28;20214;-82
2021/03/19 02:54:00;;;;;;;14.90;10.32;;;2.60;99.90;;;;;;5036608;28;20282;-83
2021/03/19 02:56:26;;;;;;;10.90;9.85;;;2.60;99.90;;;;;;5036845;28;20214;-82
2021/03/19 02:58:52;;;;;;;11.98;10.02;;;2.60;99.90;;;;;;5036593;28;20206;-82
2021/03/19 03:01:18;;;;;;;15.07;10.48;;;2.60;99.90;;;;;;5036292;28;20231;-82
2021/03/19 03:03:45;;;;;;;13.65;10.00;;;2.60;99.90;;;;;;5036402;28;20315;-82
2021/03/19 03:06:12;;;;;;;11.18;10.07;;;2.60;99.90;;;;;;5036160;28;20218;-82
2021/03/19 03:08:38;;;;;;;10.85;9.95;;;2.70;99.90;;;;;;5036398;28;20237;-82
2021/03/19 03:11:05;;;;;;;12.13;10.65;;;2.70;99.90;;;;;;5036072;28;20222;-82
2021/03/19 03:13:31;;;;;;;11.27;10.07;;;2.70;99.90;;;;;;5035885;28;20631;-82
2021/03/19 03:15:58;;;;;;;11.70;9.98;;;2.70;99.90;;;;;;5035692;28;20221;-82
2021/03/19 03:18:24;;;;;;;11.93;10.50;;;2.70;99.90;;;;;;5036255;28;20247;-82
2021/03/19 03:20:53;;;;;;;13.27;11.95;;;2.70;99.90;;;;;;5035923;28;20234;-82
2021/03/19 03:23:23;;;;;;;10.00;9.00;;;2.70;99.90;;;;;;5036469;28;20208;-82
2021/03/19 03:25:49;;;;;;;9.68;8.85;;;2.70;99.90;;;;;;5036838;28;20573;-82
2021/03/19 03:28:17;;;;;;;11.70;10.45;;;2.70;99.90;;;;;;5036757;28;20226;-82
2021/03/19 03:30:46;;;;;;;12.27;10.43;;;2.70;99.90;;;;;;5036052;28;20289;-82
2021/03/19 03:33:12;;;;;;;11.75;10.63;;;2.70;99.90;;;;;;5035855;28;20213;-82
2021/03/19 03:35:40;;;;;;;11.70;10.60;;;2.70;99.90;;;;;;5036551;28;20251;-82
2021/03/19 03:38:09;;;;;;;11.57;10.32;;;2.70;99.90;;;;;;5035897;28;20202;-82
2021/03/19 03:40:43;;;;;;;11.15;10.00;;;2.80;99.90;;;;;;5036616;28;20226;-82
2021/03/19 03:43:12;;;;;;;10.80;9.38;;;2.80;99.90;;;;;;5035828;28;20207;-81
2021/03/19 03:45:38;;;;;;;12.02;10.70;;;2.80;99.90;;;;;;5036088;28;20269;-82
2021/03/19 03:48:06;;;;;;;11.98;10.27;;;2.80;99.90;;;;;;5036348;28;20233;-82
2021/03/19 03:50:33;;;;;;;11.52;10.52;;;2.90;99.90;;;;;;5036413;28;20228;-82
2021/03/19 03:52:59;;;;;;;18.90;12.38;;;2.90;99.90;;;;;;5036387;28;20230;-82
2021/03/19 03:55:25;;;;;;;12.80;10.73;;;2.90;99.90;;;;;;5036561;28;20564;-82
2021/03/19 03:57:52;;;;;;;13.45;12.15;;;3.00;99.90;;;;;;5036158;28;20223;-81
2021/03/19 04:00:23;;;;;;;13.23;11.85;;;3.00;99.90;;;;;;5035968;28;20649;-82
2021/03/19 04:02:49;;;;;;;11.98;10.82;;;3.00;99.90;;;;;;5037251;28;20212;-82
2021/03/19 04:05:21;;;;;;;12.40;10.75;;;3.00;99.90;;;;;;5039408;28;20243;-81
2021/03/19 04:07:47;;;;;;;12.43;11.32;;;3.10;99.90;;;;;;5039535;28;20699;-82
2021/03/19 04:10:14;;;;;;;12.85;11.43;;;3.10;99.90;;;;;;5039778;28;20227;-81
2021/03/19 04:12:40;;;;;;;11.82;10.73;;;3.10;99.90;;;;;;5039727;28;20280;-82
2021/03/19 04:15:08;;;;;;;12.45;11.23;;;3.10;99.90;;;;;;5039610;28;20208;-82
2021/03/19 04:17:35;;;;;;;12.23;10.98;;;3.20;99.90;;;;;;5039311;28;20202;-82
2021/03/19 04:20:04;;;;;;;11.82;10.73;;;3.20;99.90;;;;;;5038368;28;20655;-82
2021/03/19 04:22:30;;;;;;;13.77;12.35;;;3.20;99.90;;;;;;5038763;28;20215;-82
2021/03/19 04:24:56;;;;;;;11.93;10.82;;;3.20;99.90;;;;;;5039228;28;20207;-82
2021/03/19 04:27:27;;;;;;;13.27;11.45;;;3.30;99.90;;;;;;5039104;28;20240;-82
2021/03/19 04:29:55;;;;;;;13.25;12.10;;;3.30;99.90;;;;;;5039683;28;20227;-82
2021/03/19 04:32:22;;;;;;;13.05;10.88;;;3.30;99.90;;;;;;5038571;28;20697;-82
2021/03/19 04:34:49;;;;;;;13.88;12.38;;;3.30;99.90;;;;;;5039001;28;20220;-83
2021/03/19 04:37:15;;;;;;;15.02;13.80;;;3.30;99.90;;;;;;5039166;28;20582;-82
2021/03/19 04:39:43;;;;;;;15.65;13.25;;;3.30;99.90;;;;;;5039222;28;20250;-82
2021/03/19 04:42:11;;;;;;;14.52;11.57;;;3.30;99.90;;;;;;5039172;28;20576;-82
2021/03/19 04:44:40;;;;;;;14.68;12.55;;;3.30;99.90;;;;;;5039042;28;20298;-82
2021/03/19 04:47:06;;;;;;;12.38;11.13;;;3.30;99.90;;;;;;5039020;28;20209;-82
2021/03/19 04:49:34;;;;;;;11.90;10.70;;;3.30;99.90;;;;;;5038415;28;20718;-82
2021/03/19 04:52:02;;;;;;;12.93;11.57;;;3.30;99.90;;;;;;5038901;28;20201;-82
2021/03/19 04:54:29;;;;;;;13.65;11.77;;;3.30;99.90;;;;;;5038803;28;20204;-82
2021/03/19 04:56:56;;;;;;;14.52;13.13;;;3.30;99.90;;;;;;5038567;28;20221;-82
2021/03/19 04:59:22;;;;;;;11.60;10.40;;;3.30;99.90;;;;;;5038697;28;20683;-82
2021/03/19 05:01:51;;;;;;;14.52;12.43;;;3.30;99.90;;;;;;5038185;28;20211;-82
2021/03/19 05:04:18;;;;;;;11.50;10.35;;;3.30;99.90;;;;;;5042239;28;20212;-81
2021/03/19 05:06:46;;;;;;;14.90;13.50;;;3.30;99.90;;;;;;5043797;28;20216;-82
2021/03/19 05:09:13;;;;;;;13.65;12.13;;;3.30;99.90;;;;;;5043726;28;20741;-82
2021/03/19 05:11:39;;;;;;;13.75;12.50;;;3.30;99.90;;;;;;5039811;28;20706;-82
2021/03/19 05:14:06;;;;;;;15.18;12.98;;;3.30;99.90;;;;;;5038276;28;20234;-81
2021/03/19 05:16:32;;;;;;;14.07;12.68;;;3.30;99.90;;;;;;5038681;28;20211;-82
2021/03/19 05:18:59;;;;;;;14.68;13.02;;;3.30;99.90;;;;;;5038117;28;20202;-82
2021/03/19 05:21:25;;;;;;;15.40;13.65;;;3.30;99.90;;;;;;5038087;28;20253;-81
2021/03/19 05:23:52;;;;;;;15.70;13.55;;;3.30;99.90;;;;;;5038247;28;20211;-82
2021/03/19 05:26:18;;;;;;;14.93;13.43;;;3.20;99.90;;;;;;5038535;28;20602;-82
2021/03/19 05:28:45;;;;;;;14.32;12.93;;;3.20;99.90;;;;;;5038337;28;20238;-82
2021/03/19 05:31:11;;;;;;;11.88;10.77;;;3.20;99.90;;;;;;5038404;28;20235;-82
2021/03/19 05:33:44;;;;;;;13.85;11.82;;;3.30;99.90;;;;;;5037989;28;20243;-81
2021/03/19 05:36:12;;;;;;;15.07;13.13;;;3.20;99.90;;;;;;5037782;28;20217;-83
2021/03/19 05:38:39;;;;;;;14.05;11.45;;;3.20;99.90;;;;;;5038327;28;20211;-82
2021/03/19 05:41:07;;;;;;;14.77;13.13;;;3.20;99.90;;;;;;5037990;28;20234;-82
2021/03/19 05:43:36;;;;;;;16.48;13.65;;;3.10;99.90;;;;;;5037907;28;20251;-82
2021/03/19 05:46:06;;;;;;;14.32;13.02;;;3.10;99.90;;;;;;5037444;28;20216;-82
2021/03/19 05:48:43;;;;;;;17.15;13.45;;;3.20;99.90;;;;;;5037748;28;20256;-81
2021/03/19 05:51:20;;;;;;;12.75;11.55;;;3.20;99.90;;;;;;5037899;28;20314;-81
2021/03/19 05:53:53;;;;;;;11.90;10.35;;;3.30;99.90;;;;;;5037363;28;20353;-81
2021/03/19 05:56:24;;;;;;;12.68;11.38;;;3.20;99.90;;;;;;5037579;28;20210;-81
2021/03/19 05:58:50;;;;;;;11.80;10.65;;;3.20;99.90;;;;;;5037743;28;20231;-81
2021/03/19 06:01:16;;;;;;;12.98;11.60;;;3.20;99.90;;;;;;5038361;28;20232;-81
2021/03/19 06:03:45;;;;;;;13.55;12.30;;;3.10;99.90;;;;;;5037409;28;20212;-81
2021/03/19 06:06:12;;;;;;;13.15;11.90;;;2.90;99.90;;;;;;5037626;28;20207;-81
2021/03/19 06:08:42;;;;;;;14.50;13.02;;;2.90;99.90;;;;;;5037115;28;20224;-81
2021/03/19 06:11:16;;;;;;;13.07;11.77;;;3.00;99.90;;;;;;5036847;28;20231;-81
2021/03/19 06:13:55;;;;;;;14.65;13.15;;;3.00;99.90;;;;;;5036638;28;20211;-80
2021/03/19 06:16:35;;;;;;;13.70;12.35;;;3.10;99.90;;;;;;5037091;28;20266;-81
2021/03/19 06:19:04;;;;;;;12.43;10.65;;;3.20;99.90;;;;;;5036739;28;20214;-82
2021/03/19 06:21:33;;;;;;;15.98;12.40;;;3.20;99.90;;;;;;5036970;28;20265;-81
2021/03/19 06:24:12;;;;;;;10.85;9.73;;;3.10;99.90;;;;;;5036899;28;20202;-82
2021/03/19 06:26:41;;;;;;;14.80;13.30;;;3.20;99.90;;;;;;5036886;28;20213;-82
2021/03/19 06:29:19;;;;;;;14.50;12.98;;;3.10;99.90;;;;;;5037427;28;20237;-81
2021/03/19 06:32:05;;;;;;;12.13;10.95;;;3.10;99.90;;;;;;5036990;28;20219;-82
2021/03/19 06:34:32;;;;;;;14.88;12.27;;;3.00;99.90;;;;;;5037082;28;20206;-81
2021/03/19 06:37:02;;;;;;;16.63;15.02;;;2.90;99.90;;;;;;5037514;28;20230;-82
2021/03/19 06:39:30;;;;;;;14.50;13.00;;;2.80;99.90;;;;;;5037211;28;20229;-82
2021/03/19 06:42:05;;;;;;;14.50;11.82;;;2.70;99.90;;;;;;5037136;28;20230;-81
2021/03/19 06:44:33;;;;;;;13.30;12.00;;;2.70;99.90;;;;;;5037287;28;20210;-83
2021/03/19 06:47:02;;;;;;;16.33;13.43;;;2.70;99.90;;;;;;5037637;28;20229;-82
2021/03/19 06:49:30;;;;;;;16.98;13.98;;;2.60;99.90;;;;;;5037201;28;20299;-82
2021/03/19 06:52:16;;;;;;;13.25;12.00;;;2.60;99.90;;;;;;5037486;28;20216;-83
2021/03/19 06:54:47;;;;;;;18.75;13.85;;;2.70;99.90;;;;;;5038037;28;20204;-83
2021/03/19 06:57:15;;;;;;;16.70;15.02;;;2.70;99.90;;;;;;5038366;28;20213;-82
2021/03/19 06:59:45;;;;;;;17.35;13.70;;;2.80;99.90;;;;;;5038715;28;20318;-83
2021/03/19 07:02:42;;;;;;;18.27;14.50;;;2.90;99.90;;;;;;5038091;28;20209;-82
2021/03/19 07:05:23;;;;;;;16.10;14.13;;;3.00;99.90;;;;;;5038184;28;20245;-83
2021/03/19 07:08:08;;;;;;;16.45;14.60;;;3.10;99.90;;;;;;5038222;28;20240;-82
2021/03/19 07:10:46;;;;;;;14.75;12.48;;;3.20;99.90;;;;;;5038455;28;20233;-83
2021/03/19 07:13:33;;;;;;;16.10;14.10;;;3.00;99.90;;;;;;5038425;28;20208;-84
2021/03/19 07:16:10;;;;;;;18.45;15.10;;;3.10;99.90;;;;;;5039358;28;20673;-83
2021/03/19 07:19:02;;;;;;;15.80;13.23;;;3.10;99.90;;;;;;5039421;28;20208;-84
2021/03/19 07:21:51;;;;;;;17.55;15.77;;;3.20;99.90;;;;;;5039042;28;20237;-84
2021/03/19 07:24:29;;;;;;;18.58;16.13;;;3.30;99.90;;;;;;5000420;28;20221;-82
2021/03/19 07:27:02;;;;;;;18.20;15.85;;;3.20;99.90;;;;;;5039533;28;20214;-83
2021/03/19 07:29:46;;;;;;;19.08;16.30;;;3.10;99.90;;;;;;5039188;28;20230;-83
2021/03/19 07:32:55;;;;;;;17.35;15.27;;;3.20;99.90;;;;;;5040228;28;20328;-85
2021/03/19 07:35:35;;;;;;;17.85;14.77;;;3.20;99.90;;;;;;5039882;28;20207;-85
2021/03/19 07:38:35;;;;;;;17.88;16.08;;;3.20;99.90;;;;;;5044322;28;20293;-85
2021/03/19 07:41:14;;;;;;;18.33;14.95;;;3.20;99.90;;;;;;5017668;28;20241;-84
2021/03/19 07:43:58;;;;;;;17.52;15.68;;;3.30;99.90;;;;;;5044067;28;20674;-84
2021/03/19 07:46:31;;;;;;;17.77;15.98;;;3.40;99.90;;;;;;5044919;28;20281;-85
2021/03/19 07:49:12;;;;;;;19.30;15.80;;;3.50;99.90;;;;;;5045991;28;20294;-84
2021/03/19 07:51:53;;;;;;;19.30;15.63;;;3.60;99.90;;;;;;5045643;28;20202;-84
2021/03/19 07:54:25;;;;;;;16.45;14.77;;;3.60;99.90;;;;;;5045558;28;20206;-85
2021/03/19 07:57:02;;;;;;;19.48;15.40;;;3.60;99.90;;;;;;5046572;28;20206;-85
2021/03/19 07:59:43;;;;;;;16.70;13.90;;;3.60;99.90;;;;;;5044521;28;20600;-84
2021/03/19 08:02:44;;;;;;;18.92;15.05;;;3.70;99.90;;;;;;5046714;28;20206;-83
2021/03/19 08:05:21;;;;;;;14.27;12.75;;;3.70;99.90;;;;;;5046138;28;20202;-83
2021/03/19 08:07:57;;;;;;;17.05;13.05;;;3.70;99.90;;;;;;5039088;28;20225;-85
2021/03/19 08:10:26;;;;;;;14.32;11.70;;;3.80;99.90;;;;;;5033892;28;20234;-85
2021/03/19 08:13:01;;;;;;;12.43;11.05;;;3.90;99.90;;;;;;5041638;28;20212;-83
2021/03/19 08:15:35;;;;;;;14.55;11.43;;;3.90;99.90;;;;;;5036554;28;20276;-84
2021/03/19 08:18:06;;;;;;;13.43;11.60;;;4.00;99.90;;;;;;5035482;28;20224;-84
2021/03/19 08:20:42;;;;;;;13.18;9.95;;;3.70;99.90;;;;;;5039944;28;20231;-84
2021/03/19 08:23:20;;;;;;;11.30;9.00;;;3.70;99.90;;;;;;5036000;28;20198;-84
2021/03/19 08:25:48;;;;;;;13.40;11.35;;;3.90;99.90;;;;;;5036116;28;20191;-85
2021/03/19 08:28:24;;;;;;;12.77;10.48;;;4.00;99.90;;;;;;5040171;28;20225;-83
2021/03/19 08:30:58;;;;;;;15.68;10.20;;;4.10;99.90;;;;;;5040302;28;20229;-84
2021/03/19 08:33:34;;;;;;;9.68;8.68;;;4.30;99.90;;;;;;5035575;28;20217;-84
2021/03/19 08:36:08;;;;;;;11.73;9.75;;;4.40;99.90;;;;;;5039971;28;20200;-84
2021/03/19 08:38:37;;;;;;;12.73;10.68;;;4.50;99.90;;;;;;5041679;28;20209;-84
2021/03/19 08:41:09;;;;;;;11.48;9.25;;;4.50;99.90;;;;;;5042053;28;20233;-81
2021/03/19 08:43:41;;;;;;;13.18;9.63;;;4.30;99.90;;;;;;5041287;28;20210;-83
2021/03/19 08:46:12;;;;;;;10.43;9.32;;;4.30;99.90;;;;;;5041776;28;20207;-84
2021/03/19 09:13:29;;;;;;;15.63;11.38;;;3.60;99.90;;;;;;4924227;29;20222;-84
2021/03/19 09:16:34;;;;;;;12.48;10.82;;;3.60;99.90;;;;;;4994624;28;20214;-85
2021/03/19 09:19:46;;;;;;;12.15;10.23;;;3.50;99.90;;;;;;5021385;28;20199;-86
2021/03/19 09:22:33;;;;;;;12.48;10.75;;;3.60;99.90;;;;;;5020169;28;20233;-85
2021/03/19 09:25:46;;;;;;;15.90;11.45;;;3.50;99.90;;;;;;5019579;28;20208;-83
2021/03/19 09:28:23;;;;;;;13.60;10.40;;;3.50;99.90;;;;;;5020068;28;20237;-84
2021/03/19 09:30:54;;;;;;;27.73;13.73;;;3.40;99.90;;;;;;5019019;28;20224;-84
2021/03/19 09:34:00;;;;;;;13.52;11.35;;;3.40;99.90;;;;;;5018941;28;20199;-83
2021/03/19 09:37:09;;;;;;;17.55;13.43;;;3.40;99.90;;;;;;5017959;28;20633;-84
2021/03/19 09:39:54;;;;;;;13.75;11.70;;;3.40;99.90;;;;;;5018409;28;20274;-84
2021/03/19 09:42:57;;;;;;;17.23;11.00;;;3.30;99.90;;;;;;5018066;28;20262;-83
2021/03/19 09:45:37;;;;;;;14.75;11.82;;;3.40;99.90;;;;;;5018056;28;20232;-83
2021/03/19 09:48:25;;;;;;;15.07;10.63;;;3.60;99.90;;;;;;5018583;28;20231;-83
2021/03/19 09:51:20;;;;;;;11.40;9.80;;;3.90;99.90;;;;;;5018355;28;20314;-83
2021/03/19 09:53:47;;;;;;;13.25;10.15;;;4.20;99.90;;;;;;5020380;28;20258;-82
2021/03/19 09:56:21;;;;;;;11.73;9.13;;;4.50;99.90;;;;;;5018170;28;20215;-82
2021/03/19 09:58:49;;;;;;;10.05;9.25;;;4.60;99.90;;;;;;5017945;28;20209;-83
2021/03/19 10:01:26;;;;;;;14.60;9.80;;;4.70;99.90;;;;;;5017469;28;20417;-83
2021/03/19 10:03:56;;;;;;;11.43;10.32;;;4.90;99.90;;;;;;5017391;28;20219;-81
2021/03/19 10:06:30;;;;;;;12.85;9.68;;;4.90;99.90;;;;;;5017384;28;20214;-82
2021/03/19 10:09:14;;;;;;;12.68;9.60;;;5.10;99.90;;;;;;5017357;28;20278;-82
2021/03/19 10:12:11;;;;;;;11.50;10.00;;;5.10;99.90;;;;;;5017071;28;20215;-84
2021/03/19 10:14:39;;;;;;;12.00;10.23;;;5.10;99.90;;;;;;5003449;28;20281;-82
2021/03/19 10:17:19;;;;;;;11.73;10.07;;;5.30;99.90;;;;;;5021642;28;20202;-83
2021/03/19 10:22:35;;;;;;;10.15;8.77;;;5.80;99.90;;;;;;5034303;28;20241;-84
2021/03/19 10:25:18;;;;;;;10.32;8.93;;;5.90;99.90;;;;;;5038940;28;20195;-85
2021/03/19 10:28:04;;;;;;;9.07;8.02;;;6.10;99.90;;;;;;5036383;28;20217;-84
2021/03/19 10:34:27;;;;;;;8.52;7.05;;;6.50;99.90;;;;;;5019284;28;20210;-85
2021/03/19 10:37:25;;;;;;;9.95;8.18;;;6.90;99.90;;;;;;4959351;28;20235;-83
2021/03/19 10:40:12;;;;;;;6.50;6.00;;;7.20;99.90;;;;;;5040829;28;20642;-83
2021/03/19 10:43:00;;;;;;;7.60;6.80;;;7.20;99.90;;;;;;5040307;28;20217;-82
2021/03/19 10:45:34;;;;;;;8.38;7.50;;;7.10;99.90;;;;;;5022429;28;20198;-82
2021/03/19 10:48:12;;;;;;;7.72;7.03;;;6.90;99.90;;;;;;5037729;28;20253;-83
2021/03/19 10:50:52;;;;;;;7.57;6.97;;;6.60;99.90;;;;;;5036690;28;20222;-82
2021/03/19 10:53:21;;;;;;;8.95;8.05;;;6.30;99.90;;;;;;5034164;28;20209;-82
2021/03/19 10:55:50;;;;;;;9.07;8.15;;;6.20;99.90;;;;;;5034938;28;20237;-84
2021/03/19 10:58:30;;;;;;;9.15;8.18;;;5.90;99.90;;;;;;5036902;28;20336;-84
2021/03/19 11:00:57;;;;;;;8.73;7.85;;;5.70;99.90;;;;;;5038464;28;20316;-84
2021/03/19 11:03:34;;;;;;;8.60;7.70;;;5.60;99.90;;;;;;5038518;28;20218;-85
2021/03/19 11:06:03;;;;;;;13.60;9.43;;;5.50;99.90;;;;;;5040420;28;20235;-85
2021/03/19 11:08:30;;;;;;;10.90;9.85;;;5.40;99.90;;;;;;5035206;28;20214;-84
2021/03/19 11:10:57;;;;;;;8.23;7.43;;;5.50;99.90;;;;;;5036868;28;20222;-84
2021/03/19 11:13:32;;;;;;;8.35;6.90;;;5.40;99.90;;;;;;5043906;28;20210;-85
2021/03/19 11:19:52;;;;;;;7.47;6.72;;;5.50;99.90;;;;;;5021082;28;20269;-83
2021/03/19 11:22:56;;;;;;;7.82;7.07;;;5.60;99.90;;;;;;5038270;28;20198;-84
2021/03/19 11:25:52;;;;;;;7.75;6.75;;;5.60;99.90;;;;;;4978278;28;20230;-84
2021/03/19 11:28:39;;;;;;;5.22;4.82;;;5.40;99.90;;;;;;4986283;28;20235;-84
2021/03/19 11:31:14;;;;;;;6.80;6.22;;;5.10;99.90;;;;;;5048106;28;20236;-85
2021/03/19 11:34:00;;;;;;;7.20;6.30;;;4.90;99.90;;;;;;5046027;28;20206;-84
2021/03/19 11:36:28;;;;;;;5.88;5.38;;;5.00;99.90;;;;;;5044160;28;20212;-84
2021/03/19 11:39:09;;;;;;;4.95;4.55;;;5.10;99.90;;;;;;5043936;28;20256;-82
2021/03/19 11:41:40;;;;;;;5.43;5.03;;;5.20;99.90;;;;;;5042854;28;20292;-84
2021/03/19 11:44:08;;;;;;;5.00;4.50;;;5.20;99.90;;;;;;5041150;28;20217;-83
2021/03/19 11:46:35;;;;;;;6.55;5.95;;;5.30;99.90;;;;;;5041094;28;20211;-83
2021/03/19 11:49:01;;;;;;;5.13;4.60;;;5.30;99.90;;;;;;5041915;28;20238;-81
2021/03/19 11:51:32;;;;;;;5.25;4.75;;;5.40;99.90;;;;;;5043067;28;20229;-83
2021/03/19 11:53:59;;;;;;;6.05;5.53;;;5.30;99.90;;;;;;5041747;28;20288;-85
2021/03/19 11:56:28;;;;;;;4.90;4.50;;;5.30;99.90;;;;;;5042641;28;20242;-85
2021/03/19 11:58:55;;;;;;;5.68;5.18;;;5.30;99.90;;;;;;5042154;28;20202;-85
2021/03/19 12:01:23;;;;;;;6.68;6.07;;;5.10;99.90;;;;;;5039649;28;20226;-84
2021/03/19 12:03:56;;;;;;;6.60;5.15;;;5.20;99.90;;;;;;5040348;28;20210;-87
2021/03/19 12:06:27;;;;;;;6.38;5.70;;;5.50;99.90;;;;;;5040999;28;20233;-84
2021/03/19 12:09:19;;;;;;;7.20;6.50;;;5.90;99.90;;;;;;5041105;28;20235;-83
2021/03/19 12:18:25;;;;;;;6.65;5.70;;;6.40;99.90;;;;;;4956361;28;20275;-84
2021/03/19 12:20:54;;;;;;;6.97;6.38;;;6.50;99.90;;;;;;5006713;28;20329;-83
2021/03/19 12:23:22;;;;;;;6.97;6.32;;;6.40;99.90;;;;;;5038683;28;20207;-83
2021/03/19 12:25:48;;;;;;;7.45;6.68;;;6.40;99.90;;;;;;5039341;28;20206;-84
2021/03/19 12:28:18;;;;;;;8.00;7.18;;;6.40;99.90;;;;;;5039839;28;20226;-84
2021/03/19 12:30:45;;;;;;;6.53;5.93;;;6.30;99.90;;;;;;5039796;28;20634;-83
2021/03/19 12:33:11;;;;;;;10.98;7.05;;;6.00;99.90;;;;;;5040324;28;20213;-83
2021/03/19 12:35:41;;;;;;;7.72;7.00;;;5.90;99.90;;;;;;5039793;28;20214;-82
2021/03/19 12:38:07;;;;;;;8.30;7.30;;;5.80;99.90;;;;;;5039033;28;20210;-82
2021/03/19 12:40:34;;;;;;;9.02;8.02;;;5.70;99.90;;;;;;5039440;28;20234;-83
2021/03/19 12:43:00;;;;;;;8.63;7.53;;;5.60;99.90;;;;;;5040099;28;20580;-83
2021/03/19 12:45:28;;;;;;;9.75;8.23;;;5.30;99.90;;;;;;5044421;28;20213;-84
2021/03/19 12:47:55;;;;;;;10.55;7.68;;;5.10;99.90;;;;;;5041493;28;20202;-85
2021/03/19 12:50:25;;;;;;;9.93;8.05;;;5.00;99.90;;;;;;5041984;28;20268;-84
2021/03/19 12:52:53;;;;;;;10.57;7.95;;;5.00;99.90;;;;;;5040867;28;20213;-85
2021/03/19 12:55:20;;;;;;;13.23;9.88;;;4.90;99.90;;;;;;5041115;28;20234;-85
2021/03/19 13:01:26;;;;;;;10.23;9.00;;;4.80;99.90;;;;;;4884044;29;20712;-84
2021/03/19 13:04:29;;;;;;;;;;;;;;;;;;;;;
2021/03/19 13:07:15;;;;;;;12.13;9.90;;;4.60;99.90;;;;;;4960046;29;20211;-84
2021/03/19 13:10:20;;;;;;;11.43;9.70;;;4.40;99.90;;;;;;4959311;29;20723;-84
2021/03/19 13:16:24;;;;;;;13.40;10.70;;;4.10;99.90;;;;;;4870573;29;20232;-85
2021/03/19 13:19:46;;;;;;;;;;;;;;;;;;;;;
2021/03/19 13:26:08;;;;;;;;;;;;;;;;;;;;;
2021/03/19 13:45:27;;;;;;;17.58;12.55;;;3.20;99.90;;;;;;4906758;29;20394;-85
2021/03/19 13:48:06;;;;;;;15.02;11.93;;;3.30;99.90;;;;;;4994314;28;20238;-85
2021/03/19 13:57:44;;;;;;;14.23;11.90;;;3.80;99.90;;;;;;4970277;28;20209;-86
2021/03/19 14:35:43;;;;;;;16.10;12.45;;;5.60;99.90;;;;;;5017735;28;20683;-85
2021/03/19 14:38:13;;;;;;;15.77;12.32;;;5.70;99.90;;;;;;5058114;28;20236;-83
2021/03/19 14:40:55;;;;;;;13.63;10.88;;;5.80;99.90;;;;;;5057520;28;20707;-84
2021/03/19 14:43:30;;;;;;;16.88;11.80;;;5.80;99.90;;;;;;5055797;28;20260;-85
2021/03/19 14:46:35;;;;;;;14.82;11.02;;;5.90;99.90;;;;;;5058921;28;20212;-86
2021/03/19 14:52:27;;;;;;;8.57;7.68;;;5.60;99.90;;;;;;5036067;28;20217;-85
2021/03/19 14:55:17;;;;;;;8.60;7.28;;;5.30;99.90;;;;;;5038436;28;20202;-85
2021/03/19 14:58:28;;;;;;;;;;;;;;;;;;;;;
2021/03/19 15:04:40;;;;;;;;;;;;;;;;;;;;;
2021/03/19 15:17:27;;;;;;;9.23;7.65;;;4.50;99.90;;;;;;4971368;28;20221;-84
2021/03/19 15:19:54;;;;;;;12.40;7.68;;;4.30;99.90;;;;;;5038181;28;20226;-83
2021/03/19 15:22:47;;;;;;;7.53;6.00;;;4.20;99.90;;;;;;5038101;28;20239;-86
2021/03/19 17:59:12;;;;;;;6.85;5.60;;;2.80;99.90;;;;;;4852570;29;20222;-85
2021/03/19 18:01:50;;;;;;;;;;;;;;;;;;;;;
2021/03/19 18:04:19;;;;;;;8.15;5.47;;;2.80;99.90;;;;;;4827674;29;20273;-83
2021/03/19 18:07:10;;;;;;;8.82;6.85;;;2.70;99.90;;;;;;4830908;29;20214;-83
2021/03/19 18:10:30;;;;;;;8.15;6.88;;;2.70;99.90;;;;;;4830943;29;20237;-83
2021/03/19 18:13:08;;;;;;;7.65;7.05;;;2.80;99.90;;;;;;4740335;29;20232;-83
2021/03/19 18:16:04;;;;;;;;;;;;;;;;;;;;;